Time;durP1;ratioP1;P1;durP2;ratioP2;P2;SDS_P1;SDS_P2;PMS_P1;PMS_P2;Temp;Humidity;BMP_temperature;BMP_pressure;BME280_temperature;BME280_humidity;BME280_pressure;Samples;Min_cycle;Max_cycle;Signal;HPM_P1;HPM_P2
2021/08/12 00:00:39;;;;;;;3.43;3.07;;;;;;;19.11;64.28;97359.70;126923;1095;62615;-49
2021/08/12 00:03:21;;;;;;;3.80;3.07;;;;;;;19.07;64.37;97361.84;126928;1093;62645;-53
2021/08/12 00:05:47;;;;;;;3.90;2.83;;;;;;;19.03;64.44;97363.16;127047;1095;62623;-50
2021/08/12 00:08:14;;;;;;;3.60;3.10;;;;;;;19.00;64.44;97363.52;127135;1095;62574;-51
2021/08/12 00:10:42;;;;;;;3.43;3.10;;;;;;;18.98;64.54;97367.31;127080;1093;62690;-52
2021/08/12 00:13:09;;;;;;;3.33;2.90;;;;;;;18.95;64.53;97364.98;127069;1095;63086;-56
2021/08/12 00:15:36;;;;;;;3.40;2.97;;;;;;;18.92;64.63;97370.63;127089;1093;62662;-50
2021/08/12 00:18:03;;;;;;;3.20;2.90;;;;;;;18.90;64.76;97362.83;126896;1095;62698;-45
2021/08/12 00:20:30;;;;;;;4.07;3.40;;;;;;;18.89;64.63;97365.65;126911;1095;62713;-51
2021/08/12 00:22:57;;;;;;;3.67;3.00;;;;;;;18.87;64.52;97372.94;126923;1093;62595;-50
2021/08/12 00:25:24;;;;;;;3.60;2.83;;;;;;;18.85;64.55;97366.97;126942;1095;62599;-53
2021/08/12 00:27:51;;;;;;;3.67;3.03;;;;;;;18.83;64.62;97369.79;126949;1095;62679;-51
2021/08/12 00:30:17;;;;;;;3.63;2.80;;;;;;;18.83;64.63;97370.61;126984;1095;63002;-50
2021/08/12 00:32:44;;;;;;;3.73;3.10;;;;;;;18.80;64.76;97375.41;126885;1095;62825;-49
2021/08/12 00:35:11;;;;;;;3.50;2.60;;;;;;;18.80;64.57;97388.64;127007;1095;62626;-49
2021/08/12 00:37:39;;;;;;;3.27;2.60;;;;;;;18.79;64.87;97387.81;126943;1095;62679;-49
2021/08/12 00:40:06;;;;;;;4.00;2.87;;;;;;;18.79;64.77;97381.70;127062;1095;62619;-49
2021/08/12 00:42:33;;;;;;;3.90;3.10;;;;;;;18.78;64.76;97378.23;127038;1093;62711;-51
2021/08/12 00:45:00;;;;;;;4.00;2.93;;;;;;;18.78;64.89;97383.52;127097;1095;62575;-49
2021/08/12 00:47:28;;;;;;;3.90;3.50;;;;;;;18.78;64.71;97380.88;127031;1095;63057;-55
2021/08/12 00:49:55;;;;;;;5.37;3.53;;;;;;;18.79;64.67;97376.41;127053;1095;62612;-50
2021/08/12 00:52:22;;;;;;;3.73;3.00;;;;;;;18.80;64.78;97368.28;126973;1093;62563;-49
2021/08/12 00:54:49;;;;;;;4.10;3.10;;;;;;;18.81;64.61;97369.11;127009;1095;62688;-52
2021/08/12 00:57:18;;;;;;;4.23;3.60;;;;;;;18.80;64.59;97357.69;127034;1093;62726;-51
2021/08/12 00:59:45;;;;;;;3.47;3.00;;;;;;;18.79;64.76;97361.34;126803;1095;62630;-50
2021/08/12 01:02:12;;;;;;;5.90;3.20;;;;;;;18.77;64.79;97367.81;126925;1093;62610;-56
2021/08/12 01:04:46;;;;;;;3.63;3.00;;;;;;;18.74;65.09;97363.66;126947;1095;62649;-51
2021/08/12 01:07:21;;;;;;;3.43;2.70;;;;;;;18.70;65.09;97367.61;126982;1093;62671;-49
2021/08/12 01:09:52;;;;;;;4.33;3.07;;;;;;;18.64;64.97;97360.30;127020;1095;62770;-52
2021/08/12 01:12:51;;;;;;;4.30;3.07;;;;;;;18.63;65.22;97363.95;128023;1095;62622;-53
2021/08/12 01:15:44;;;;;;;3.95;3.20;;;;;;;18.60;65.28;97374.03;126893;1095;62594;-52
2021/08/12 01:18:14;;;;;;;3.87;3.40;;;;;;;18.56;65.42;97371.70;127092;1095;62674;-48
2021/08/12 01:21:10;;;;;;;4.47;3.10;;;;;;;18.53;65.36;97372.05;126872;1095;62697;-54
2021/08/12 01:23:37;;;;;;;2.80;2.47;;;;;;;18.48;65.46;97379.61;126926;1095;62674;-53
2021/08/12 01:26:04;;;;;;;3.17;2.70;;;;;;;18.46;65.67;97375.48;126970;1095;62668;-50
2021/08/12 01:28:33;;;;;;;3.10;2.77;;;;;;;18.44;65.57;97377.45;127061;1095;62608;-53
2021/08/12 01:31:21;;;;;;;4.60;3.07;;;;;;;18.40;65.88;97374.32;127041;1095;62632;-57
2021/08/12 01:34:12;;;;;;;4.23;3.10;;;;;;;18.38;65.73;97375.46;127069;1095;62709;-51
2021/08/12 01:36:42;;;;;;;3.40;2.70;;;;;;;18.36;65.77;97374.80;126978;1095;62713;-53
2021/08/12 01:39:11;;;;;;;3.20;2.90;;;;;;;18.34;65.91;97377.59;126884;1091;63054;-48
2021/08/12 01:41:39;;;;;;;3.65;3.00;;;;;;;18.32;65.97;97369.83;126971;1095;62581;-51
2021/08/12 01:44:06;;;;;;;3.63;3.13;;;;;;;18.28;66.04;97368.48;126890;1095;62632;-50
2021/08/12 01:46:34;;;;;;;3.33;2.93;;;;;;;18.27;65.90;97377.42;127052;1095;62690;-52
2021/08/12 01:49:02;;;;;;;4.35;2.90;;;;;;;18.23;66.16;97377.91;127072;1095;63054;-51
2021/08/12 01:51:30;;;;;;;4.07;3.10;;;;;;;18.21;66.33;97382.51;126984;1093;62603;-53
2021/08/12 01:53:57;;;;;;;3.57;3.10;;;;;;;18.17;66.28;97375.91;126891;1093;62680;-52
2021/08/12 01:56:24;;;;;;;4.37;3.10;;;;;;;18.14;66.27;97379.69;127020;1095;62587;-52
2021/08/12 01:58:51;;;;;;;3.83;3.30;;;;;;;18.11;66.59;97376.52;126969;1095;62684;-53
2021/08/12 02:01:19;;;;;;;3.63;2.87;;;;;;;18.08;66.60;97382.16;126905;1093;62767;-51
2021/08/12 02:03:46;;;;;;;2.87;2.50;;;;;;;18.05;66.63;97378.00;126951;1095;62680;-50
2021/08/12 02:06:13;;;;;;;3.63;3.03;;;;;;;18.04;66.81;97381.64;126831;1095;62556;-51
2021/08/12 02:08:40;;;;;;;3.60;3.20;;;;;;;18.00;66.65;97375.83;126846;1095;62622;-50
2021/08/12 02:11:07;;;;;;;4.03;3.00;;;;;;;17.96;66.78;97378.95;126899;1093;62639;-51
2021/08/12 02:13:34;;;;;;;4.53;2.97;;;;;;;17.94;66.73;97386.22;126879;1095;62706;-51
2021/08/12 02:16:01;;;;;;;3.67;2.87;;;;;;;17.91;66.98;97381.24;126859;1095;62667;-52
2021/08/12 02:18:28;;;;;;;3.40;3.00;;;;;;;17.89;66.96;97375.30;126883;1095;62697;-48
2021/08/12 02:21:01;;;;;;;3.60;3.10;;;;;;;17.86;67.13;97379.07;126940;1095;62616;-48
2021/08/12 02:23:31;;;;;;;3.87;2.93;;;;;;;17.83;67.25;97378.55;127080;1095;62611;-49
2021/08/12 02:26:05;;;;;;;4.80;3.40;;;;;;;17.80;67.36;97385.00;127050;1095;62713;-52
2021/08/12 02:28:32;;;;;;;4.33;3.37;;;;;;;17.78;67.37;97386.95;126949;1095;62619;-50
2021/08/12 02:30:59;;;;;;;3.00;2.57;;;;;;;17.75;67.43;97390.75;126907;1095;62628;-48
2021/08/12 02:33:27;;;;;;;4.70;3.43;;;;;;;17.73;67.34;97390.06;126880;1095;62621;-54
2021/08/12 02:35:54;;;;;;;3.70;3.07;;;;;;;17.70;67.51;97390.37;126906;1094;63054;-49
2021/08/12 02:38:21;;;;;;;3.63;3.10;;;;;;;17.68;67.60;97392.33;126823;1095;62759;-54
2021/08/12 02:40:50;;;;;;;4.20;3.53;;;;;;;17.67;67.60;97403.06;126704;1095;62670;-50
2021/08/12 02:43:19;;;;;;;4.30;3.47;;;;;;;17.65;67.76;97397.91;126841;1095;62626;-56
2021/08/12 02:45:46;;;;;;;3.37;2.93;;;;;;;17.65;67.63;97408.48;126935;1095;62700;-52
2021/08/12 02:48:13;;;;;;;4.25;3.10;;;;;;;17.64;67.86;97406.01;126937;1095;62666;-50
2021/08/12 02:50:41;;;;;;;3.53;3.07;;;;;;;17.64;67.86;97408.66;126939;1095;62696;-52
2021/08/12 02:53:08;;;;;;;3.87;3.20;;;;;;;17.64;67.82;97406.83;126962;1095;62615;-53
2021/08/12 02:55:35;;;;;;;3.77;3.10;;;;;;;17.63;67.78;97407.83;126795;1095;62608;-51
2021/08/12 02:58:03;;;;;;;3.33;3.03;;;;;;;17.63;67.79;97405.18;126874;1095;62598;-54
2021/08/12 03:00:31;;;;;;;3.60;2.90;;;;;;;17.63;67.94;97402.54;127032;1095;62757;-50
2021/08/12 03:02:57;;;;;;;4.50;3.17;;;;;;;17.65;67.86;97408.48;126816;1095;62858;-52
2021/08/12 03:05:25;;;;;;;4.27;3.47;;;;;;;17.64;67.82;97409.48;126657;1093;62649;-51
2021/08/12 03:07:52;;;;;;;3.63;2.90;;;;;;;17.67;67.90;97406.53;126861;1095;62607;-53
2021/08/12 03:10:19;;;;;;;4.40;3.40;;;;;;;17.65;67.89;97405.84;126893;1095;62694;-53
2021/08/12 03:12:49;;;;;;;3.90;3.20;;;;;;;17.67;67.67;97405.70;127012;1095;62678;-47
2021/08/12 03:15:16;;;;;;;4.40;3.30;;;;;;;17.66;67.67;97410.17;126948;1093;62629;-52
2021/08/12 03:17:43;;;;;;;4.10;3.20;;;;;;;17.64;67.87;97404.19;126573;1095;62663;-54
2021/08/12 03:20:11;;;;;;;3.50;3.20;;;;;;;17.64;67.71;97406.01;126917;1095;62571;-52
2021/08/12 03:22:39;;;;;;;3.37;3.07;;;;;;;17.63;67.81;97413.11;126904;1095;62683;-52
2021/08/12 03:25:07;;;;;;;3.70;3.30;;;;;;;17.63;67.78;97418.39;126888;1095;62967;-49
2021/08/12 03:27:34;;;;;;;4.27;3.47;;;;;;;17.62;67.95;97423.85;127104;1093;62626;-49
2021/08/12 03:30:01;;;;;;;4.47;3.40;;;;;;;17.63;68.08;97421.04;128816;1095;62610;-50
2021/08/12 03:32:28;;;;;;;4.47;3.60;;;;;;;17.63;68.10;97423.69;127094;1095;62626;-53
2021/08/12 03:34:55;;;;;;;3.93;3.07;;;;;;;17.67;68.82;97427.68;127130;1093;62554;-51
2021/08/12 03:37:22;;;;;;;3.50;3.03;;;;;;;17.72;69.25;97425.39;126991;1093;62697;-50
2021/08/12 03:39:49;;;;;;;5.17;2.80;;;;;;;17.81;69.50;97427.13;127010;1093;62702;-50
2021/08/12 03:42:15;;;;;;;5.60;3.17;;;;;;;17.88;68.94;97429.14;127035;1093;62607;-50
2021/08/12 03:44:42;;;;;;;4.47;3.83;;;;;;;17.92;68.34;97430.49;127022;1094;62626;-55
2021/08/12 03:47:09;;;;;;;4.13;3.07;;;;;;;17.96;69.03;97435.31;127063;1093;62607;-53
2021/08/12 03:49:36;;;;;;;3.87;3.10;;;;;;;18.01;68.51;97433.02;126912;1095;62757;-54
2021/08/12 03:52:04;;;;;;;3.43;3.07;;;;;;;18.08;68.88;97435.88;127113;1093;62736;-55
2021/08/12 03:54:32;;;;;;;4.20;3.57;;;;;;;18.13;68.54;97433.59;127009;1093;62673;-50
2021/08/12 03:56:59;;;;;;;3.70;3.00;;;;;;;18.18;68.54;97441.88;127016;1095;62636;-50
2021/08/12 03:59:25;;;;;;;4.40;3.10;;;;;;;18.23;68.23;97444.05;127106;1095;62575;-50
2021/08/12 04:01:53;;;;;;;5.27;3.43;;;;;;;18.28;68.50;97445.22;126936;1093;62706;-53
2021/08/12 04:04:19;;;;;;;4.10;3.13;;;;;;;18.39;68.25;97446.73;127908;1095;62634;-51
2021/08/12 04:06:46;;;;;;;4.47;3.67;;;;;;;18.48;68.46;97450.25;127071;1095;62607;-54
2021/08/12 04:09:13;;;;;;;4.03;3.40;;;;;;;18.54;68.34;97452.28;126938;1093;62662;-47
2021/08/12 04:11:40;;;;;;;4.90;4.20;;;;;;;18.67;68.13;97449.15;127041;1095;62619;-58
2021/08/12 04:14:07;;;;;;;4.70;3.80;;;;;;;18.81;68.10;97448.55;127022;1093;63003;-47
2021/08/12 04:16:34;;;;;;;5.23;3.53;;;;;;;18.98;67.50;97444.95;126937;1095;62611;-46
2021/08/12 04:19:02;;;;;;;4.97;4.10;;;;;;;19.14;67.33;97449.45;126967;1095;62612;-47
2021/08/12 04:21:29;;;;;;;5.60;3.40;;;;;;;19.30;66.95;97453.92;126953;1095;62616;-46
2021/08/12 04:23:56;;;;;;;3.93;3.50;;;;;;;19.46;66.37;97453.94;126952;1095;62626;-46
2021/08/12 04:26:27;;;;;;;4.60;3.70;;;;;;;19.59;65.84;97458.71;126975;1095;62596;-47
2021/08/12 04:28:55;;;;;;;4.73;3.30;;;;;;;19.74;65.56;97459.75;126969;1093;62799;-50
2021/08/12 04:31:22;;;;;;;4.90;3.80;;;;;;;19.84;65.01;97467.52;127054;1095;62632;-53
2021/08/12 04:33:49;;;;;;;3.93;3.47;;;;;;;19.91;64.47;97460.53;126981;1094;62623;-49
2021/08/12 04:36:21;;;;;;;4.50;3.50;;;;;;;19.98;64.30;97460.70;126977;1095;62623;-47
2021/08/12 04:38:49;;;;;;;4.20;3.53;;;;;;;20.10;64.16;97469.93;126932;1095;62739;-48
2021/08/12 04:41:16;;;;;;;5.00;3.70;;;;;;;20.20;63.61;97467.94;126941;1093;62587;-50
2021/08/12 04:43:43;;;;;;;4.40;3.63;;;;;;;20.32;63.58;97466.55;126923;1093;62613;-49
2021/08/12 04:46:10;;;;;;;3.55;3.25;;;;;;;20.43;63.09;97464.52;126936;1095;62626;-50
2021/08/12 04:48:37;;;;;;;4.43;3.63;;;;;;;20.53;62.67;97473.98;126964;1093;62592;-45
2021/08/12 04:51:04;;;;;;;4.50;3.77;;;;;;;20.64;62.32;97470.10;126875;1095;62620;-46
2021/08/12 04:53:31;;;;;;;5.03;3.83;;;;;;;20.76;62.20;97468.73;126901;1093;62707;-53
2021/08/12 04:55:58;;;;;;;4.57;3.60;;;;;;;20.88;61.73;97463.00;126954;1095;62575;-51
2021/08/12 04:58:25;;;;;;;4.07;3.30;;;;;;;21.01;61.66;97466.73;127045;1095;62607;-56
2021/08/12 05:00:52;;;;;;;4.90;3.73;;;;;;;21.13;61.32;97467.17;127102;1095;62575;-52
2021/08/12 05:03:19;;;;;;;5.93;3.50;;;;;;;21.24;61.06;97477.38;126877;1095;62683;-51
2021/08/12 05:05:46;;;;;;;4.30;3.70;;;;;;;21.34;60.91;97475.34;126913;1093;62678;-47
2021/08/12 05:08:13;;;;;;;3.90;3.50;;;;;;;21.47;60.69;97476.59;126937;1093;62630;-46
2021/08/12 05:10:45;;;;;;;5.17;3.70;;;;;;;21.59;60.26;97469.84;127000;1095;62566;-43
2021/08/12 05:13:12;;;;;;;4.60;3.43;;;;;;;21.73;60.00;97471.72;127005;1094;62680;-66
2021/08/12 05:15:39;;;;;;;4.03;3.63;;;;;;;21.86;59.67;97481.71;127023;1095;62687;-52
2021/08/12 05:18:06;;;;;;;4.27;3.40;;;;;;;21.96;59.16;97476.98;127046;1095;62725;-47
2021/08/12 05:20:33;;;;;;;4.57;3.00;;;;;;;22.06;58.81;97484.70;126962;1093;62620;-61
2021/08/12 05:23:00;;;;;;;3.67;3.07;;;;;;;22.14;58.64;97483.80;127018;1093;63076;-57
2021/08/12 05:25:27;;;;;;;4.70;3.53;;;;;;;22.24;58.09;97493.19;127151;1095;62615;-56
2021/08/12 05:27:54;;;;;;;5.65;3.65;;;;;;;22.32;58.17;97489.59;126898;1095;62627;-52
2021/08/12 05:30:21;;;;;;;4.87;3.50;;;;;;;22.39;57.85;97495.84;127007;1095;62559;-64
2021/08/12 05:32:47;;;;;;;3.53;2.93;;;;;;;22.44;57.71;97496.12;126914;1095;62594;-55
2021/08/12 05:35:15;;;;;;;4.27;3.10;;;;;;;22.50;57.29;97500.70;126929;1093;62562;-60
2021/08/12 05:37:41;;;;;;;4.27;3.40;;;;;;;22.55;57.20;97508.14;126965;1095;62617;-66
2021/08/12 05:40:09;;;;;;;5.13;3.80;;;;;;;22.61;57.01;97507.42;127044;1093;62604;-53
2021/08/12 05:42:36;;;;;;;5.97;4.20;;;;;;;22.67;56.84;97514.66;126992;1093;62735;-66
2021/08/12 05:45:04;;;;;;;4.70;3.73;;;;;;;22.71;56.71;97512.45;126996;1095;62607;-52
2021/08/12 05:47:31;;;;;;;5.13;3.87;;;;;;;22.74;56.47;97512.92;126953;1093;62563;-63
2021/08/12 05:49:58;;;;;;;3.50;3.20;;;;;;;22.79;56.36;97513.19;126998;1095;62607;-61
2021/08/12 05:52:25;;;;;;;4.90;3.37;;;;;;;22.82;56.28;97520.79;126893;1095;62677;-67
2021/08/12 05:54:52;;;;;;;5.20;3.40;;;;;;;22.85;56.08;97520.42;126941;1093;62736;-61
2021/08/12 05:57:19;;;;;;;5.13;3.47;;;;;;;22.90;56.30;97521.73;126865;1095;62603;-67
2021/08/12 05:59:46;;;;;;;5.10;3.50;;;;;;;22.91;55.92;97521.55;126876;1095;62578;-67
2021/08/12 06:02:12;;;;;;;5.40;3.80;;;;;;;22.96;55.94;97518.31;126920;1095;62607;-67
2021/08/12 06:04:39;;;;;;;4.00;3.40;;;;;;;22.99;55.75;97528.62;126989;1095;62639;-68
2021/08/12 06:07:06;;;;;;;5.33;3.70;;;;;;;23.02;55.69;97528.25;126900;1095;62724;-69
2021/08/12 06:09:34;;;;;;;3.65;3.35;;;;;;;23.06;55.64;97532.17;126949;1095;62576;-66
2021/08/12 06:12:01;;;;;;;5.53;3.20;;;;;;;23.12;55.50;97536.77;126997;1095;62628;-66
2021/08/12 06:14:28;;;;;;;3.33;2.77;;;;;;;23.11;55.08;97541.28;127020;1094;62596;-60
2021/08/12 06:16:55;;;;;;;6.77;3.50;;;;;;;23.13;54.85;97541.08;126936;1095;62606;-68
2021/08/12 06:19:21;;;;;;;5.10;4.10;;;;;;;23.13;54.90;97547.23;127063;1095;62562;-56
2021/08/12 06:21:48;;;;;;;5.90;3.90;;;;;;;23.16;54.88;97551.38;127074;1093;62645;-55
2021/08/12 06:24:16;;;;;;;4.57;3.67;;;;;;;23.18;54.83;97553.85;127091;1095;62585;-58
2021/08/12 06:26:44;;;;;;;5.73;4.03;;;;;;;23.21;54.58;97548.98;127005;1095;62607;-54
2021/08/12 06:29:11;;;;;;;4.57;3.33;;;;;;;23.27;54.28;97550.06;127086;1095;62572;-50
2021/08/12 06:31:38;;;;;;;4.80;3.83;;;;;;;23.33;54.10;97555.45;126924;1093;62631;-50
2021/08/12 06:34:05;;;;;;;5.60;3.63;;;;;;;23.43;53.99;97560.48;126938;1095;62620;-67
2021/08/12 06:36:32;;;;;;;5.03;3.70;;;;;;;23.57;53.82;97556.11;126890;1095;62559;-66
2021/08/12 06:38:59;;;;;;;7.10;3.40;;;;;;;23.74;53.57;97554.88;126937;1095;62615;-64
2021/08/12 06:41:27;;;;;;;5.80;3.27;;;;;;;23.94;53.51;97562.22;126911;1095;62572;-58
2021/08/12 06:43:54;;;;;;;6.20;3.53;;;;;;;24.15;52.98;97559.53;126887;1095;62783;-66
2021/08/12 06:46:21;;;;;;;4.67;3.40;;;;;;;24.36;52.82;97562.20;126882;1093;62611;-64
2021/08/12 06:48:48;;;;;;;5.37;3.60;;;;;;;24.57;52.21;97563.14;126927;1095;62603;-63
2021/08/12 06:51:15;;;;;;;4.93;3.50;;;;;;;24.75;51.87;97566.12;126934;1095;62610;-65
2021/08/12 06:53:42;;;;;;;6.03;3.90;;;;;;;24.96;51.61;97561.68;127226;1091;62716;-49
2021/08/12 06:56:09;;;;;;;5.33;3.60;;;;;;;25.16;51.20;97562.64;127089;1095;62604;-66
2021/08/12 06:58:36;;;;;;;5.20;3.37;;;;;;;25.35;50.64;97566.41;126937;1095;62575;-70
2021/08/12 07:01:03;;;;;;;5.77;3.47;;;;;;;25.53;50.50;97565.83;126880;1095;62623;-71
2021/08/12 07:03:30;;;;;;;5.50;3.80;;;;;;;25.68;50.11;97560.30;126859;1095;62681;-72
2021/08/12 07:05:57;;;;;;;6.30;3.70;;;;;;;25.84;49.49;97568.80;126889;1095;62645;-71
2021/08/12 07:08:24;;;;;;;4.83;3.30;;;;;;;25.97;48.94;97559.93;126905;1095;62796;-71
2021/08/12 07:10:52;;;;;;;5.73;3.60;;;;;;;26.08;48.88;97558.51;126826;1095;62636;-69
2021/08/12 07:13:19;;;;;;;6.03;3.30;;;;;;;26.13;48.04;97564.06;126980;1095;62587;-70
2021/08/12 07:15:46;;;;;;;4.40;3.30;;;;;;;26.21;48.02;97563.87;126930;1095;62642;-67
2021/08/12 07:18:13;;;;;;;6.00;3.60;;;;;;;26.25;47.34;97567.75;126929;1095;62639;-71
2021/08/12 07:20:40;;;;;;;6.70;3.80;;;;;;;26.30;47.38;97569.81;126868;1093;62620;-70
2021/08/12 07:23:07;;;;;;;5.73;3.90;;;;;;;26.33;47.18;97574.77;126867;1094;62629;-66
2021/08/12 07:25:35;;;;;;;3.83;2.97;;;;;;;26.39;46.79;97580.13;126900;1094;62651;-70
2021/08/12 07:28:03;;;;;;;6.17;3.77;;;;;;;26.47;46.94;97580.97;126917;1095;62616;-69
2021/08/12 07:30:30;;;;;;;5.48;3.35;;;;;;;26.55;46.79;97578.08;126994;1094;62929;-68
2021/08/12 07:32:57;;;;;;;4.60;3.40;;;;;;;26.65;46.49;97583.82;126966;1094;62627;-66
2021/08/12 07:35:24;;;;;;;5.10;3.67;;;;;;;26.76;46.35;97585.88;126901;1095;62608;-69
2021/08/12 07:37:51;;;;;;;4.20;3.37;;;;;;;26.87;45.90;97587.89;126889;1095;62623;-68
2021/08/12 07:40:18;;;;;;;5.27;3.93;;;;;;;26.99;46.00;97589.91;126913;1095;62628;-68
2021/08/12 07:42:45;;;;;;;6.33;3.70;;;;;;;27.07;45.95;97595.05;126877;1095;62661;-65
2021/08/12 07:45:12;;;;;;;4.37;3.40;;;;;;;27.12;45.31;97612.18;126942;1095;62611;-70
2021/08/12 07:47:39;;;;;;;4.07;3.13;;;;;;;27.20;45.08;97603.08;126921;1095;62623;-65
2021/08/12 07:50:11;;;;;;;4.20;3.10;;;;;;;27.29;44.87;97601.81;126955;1095;62600;-70
2021/08/12 07:52:39;;;;;;;5.43;2.97;;;;;;;27.39;44.77;97604.03;126875;1095;62620;-67
2021/08/12 07:55:07;;;;;;;4.27;3.07;;;;;;;27.51;44.42;97609.56;126912;1095;63077;-71
2021/08/12 07:57:34;;;;;;;4.33;3.60;;;;;;;27.59;45.09;97609.28;126905;1095;62764;-70
2021/08/12 08:00:01;;;;;;;4.90;3.33;;;;;;;27.66;44.27;97618.14;126876;1095;62594;-70
2021/08/12 08:02:28;;;;;;;4.67;3.63;;;;;;;27.75;44.76;97616.88;127022;1093;62572;-66
2021/08/12 08:04:55;;;;;;;4.70;3.60;;;;;;;27.86;44.60;97628.79;127006;1095;62680;-65
2021/08/12 08:07:21;;;;;;;4.10;3.17;;;;;;;27.91;44.43;97624.41;126871;1095;62552;-74
2021/08/12 08:09:48;;;;;;;5.13;3.70;;;;;;;27.94;43.98;97625.03;126871;1095;62575;-71
2021/08/12 08:12:15;;;;;;;6.20;3.37;;;;;;;27.98;44.03;97621.70;126855;1093;63067;-68
2021/08/12 08:14:42;;;;;;;4.43;3.37;;;;;;;27.99;43.83;97622.52;126925;1095;62580;-71
2021/08/12 08:17:09;;;;;;;5.10;3.63;;;;;;;27.97;44.00;97620.05;126890;1094;62613;-72
2021/08/12 08:19:36;;;;;;;5.13;3.47;;;;;;;27.94;44.02;97612.42;126898;1094;62588;-72
2021/08/12 08:22:04;;;;;;;4.70;3.67;;;;;;;27.90;44.17;97609.34;126919;1093;63005;-70
2021/08/12 08:24:30;;;;;;;5.07;4.17;;;;;;;27.90;43.59;97611.20;126971;1093;62635;-70
2021/08/12 08:26:57;;;;;;;5.40;4.50;;;;;;;27.90;43.52;97620.08;126917;1095;62626;-66
2021/08/12 08:29:24;;;;;;;5.87;4.63;;;;;;;27.90;43.73;97608.52;126939;1093;62623;-70
2021/08/12 08:31:51;;;;;;;5.43;4.60;;;;;;;27.89;43.76;97607.70;126934;1095;62620;-71
2021/08/12 08:34:18;;;;;;;5.33;4.83;;;;;;;27.86;43.47;97605.44;126871;1095;62620;-71
2021/08/12 08:36:45;;;;;;;4.63;4.13;;;;;;;27.84;43.31;97612.91;126942;1093;62601;-69
2021/08/12 08:39:12;;;;;;;6.57;4.87;;;;;;;27.85;43.56;97622.59;126844;1095;62642;-72
2021/08/12 08:41:39;;;;;;;5.00;4.00;;;;;;;27.80;43.21;97613.55;126846;1095;62633;-71
2021/08/12 08:44:08;;;;;;;5.43;3.70;;;;;;;27.73;43.19;97610.89;126865;1095;62662;-67
2021/08/12 08:46:35;;;;;;;3.93;3.53;;;;;;;27.66;42.29;97612.77;126873;1093;62597;-50
2021/08/12 08:49:02;;;;;;;4.67;3.77;;;;;;;27.56;41.15;97615.92;126827;1095;62674;-49
2021/08/12 08:51:29;;;;;;;5.13;4.00;;;;;;;27.47;40.62;97602.97;126868;1095;62623;-48
2021/08/12 08:53:56;;;;;;;4.37;3.87;;;;;;;27.33;39.96;97611.08;126573;1095;62565;-48
2021/08/12 08:56:23;;;;;;;4.27;3.40;;;;;;;27.26;39.79;97612.95;126867;1095;62600;-50
2021/08/12 08:58:50;;;;;;;4.73;3.50;;;;;;;27.21;39.93;97607.41;127016;1094;62767;-49
2021/08/12 09:01:17;;;;;;;4.07;3.40;;;;;;;27.18;39.87;97618.58;126894;1095;62646;-48
2021/08/12 09:03:45;;;;;;;4.20;3.70;;;;;;;27.11;39.66;97609.72;126864;1095;62642;-48
2021/08/12 09:06:13;;;;;;;4.87;3.53;;;;;;;27.05;38.88;97607.86;126823;1095;62675;-50
2021/08/12 09:08:40;;;;;;;4.57;3.57;;;;;;;26.99;38.17;97609.51;126894;1093;62572;-47
2021/08/12 09:11:07;;;;;;;4.27;3.50;;;;;;;26.89;37.96;97601.91;126894;1094;62724;-49
2021/08/12 09:13:34;;;;;;;4.13;3.33;;;;;;;26.85;38.63;97602.53;127035;1093;62623;-51
2021/08/12 09:16:02;;;;;;;4.43;3.50;;;;;;;26.83;38.12;97605.44;127030;1094;62644;-48
2021/08/12 09:18:29;;;;;;;4.23;3.80;;;;;;;26.82;38.24;97617.20;126931;1095;62617;-46
2021/08/12 09:20:58;;;;;;;5.20;3.67;;;;;;;26.82;38.19;97611.84;126950;1093;62639;-49
2021/08/12 09:23:26;;;;;;;5.90;4.00;;;;;;;26.84;38.29;97620.48;126935;1094;62578;-43
